Cid, North Carolina
Current Conditions -  °F | °C
As of 11:35 AM on Saturday 25 Oct 2014 (Local Time) from KEXX Reporting Station
Clear Clear  
Wind Chill: 64°   Ceiling: Unl
Heat Index: 64°   Visibility: 10mi
Dew Point: 40°   Wind: 5mph
Humidity: 40%   Direction: 20°NNE
Pressure: 30.03"   Gusts: NA
Location:  35.7974°N, 80.2541°W
Report Text: KEXX 251535Z AUTO 02004KT 10SM CLR 18/04 A3003 RMK AO2 T01800043
Loading
Personal Weather Stations






























Interactive Weather Map New forecast layout! Learn more

10-Day Weather Forecast

Advertisements
Track Severe Weather on mobile